Time;durP1;ratioP1;P1;durP2;ratioP2;P2;SDS_P1;SDS_P2;PMS_P1;PMS_P2;Temp;Humidity;BMP_temperature;BMP_pressure;BME280_temperature;BME280_humidity;BME280_pressure;Samples;Min_cycle;Max_cycle;Signal;HPM_P1;HPM_P2
2022/02/13 00:01:20;;;;;;;29.50;13.20;;;;;;;-2.66;79.85;101347.35;109273;1276;22446;-57
2022/02/13 00:03:49;;;;;;;38.50;16.10;;;;;;;-2.71;79.73;101348.11;109265;1277;23292;-57
2022/02/13 00:06:17;;;;;;;37.80;16.60;;;;;;;-2.75;79.82;101350.05;109141;1276;138566;-57
2022/02/13 00:08:45;;;;;;;45.90;18.20;;;;;;;-2.80;79.80;101351.38;109242;1276;22452;-57
2022/02/13 00:11:17;;;;;;;41.30;16.90;;;;;;;-2.85;79.78;101355.86;109178;1276;138564;-57
2022/02/13 00:13:46;;;;;;;48.50;20.30;;;;;;;-2.91;79.75;101361.27;109249;1276;22481;-56
2022/02/13 00:16:15;;;;;;;53.50;22.20;;;;;;;-2.94;79.70;101362.63;109263;1276;22497;-57
2022/02/13 00:18:44;;;;;;;41.70;15.80;;;;;;;-2.97;79.78;101359.70;109159;1277;138766;-57
2022/02/13 00:21:32;;;;;;;44.10;19.00;;;;;;;-3.01;80.02;101361.42;109279;1276;22457;-57
2022/02/13 00:23:59;;;;;;;48.40;21.30;;;;;;;-3.04;79.98;101360.45;109159;1277;138343;-57
2022/02/13 00:26:27;;;;;;;62.10;23.80;;;;;;;-3.06;80.14;101356.02;109270;1275;23480;-57
2022/02/13 00:28:56;;;;;;;48.40;21.00;;;;;;;-3.09;80.13;101350.39;109151;1276;140096;-57
2022/02/13 00:31:24;;;;;;;42.80;17.00;;;;;;;-3.13;80.25;101345.17;109234;1276;22515;-56
2022/02/13 00:33:52;;;;;;;41.10;16.80;;;;;;;-3.16;80.41;101339.39;109295;1277;22388;-57
2022/02/13 00:36:20;;;;;;;27.00;11.90;;;;;;;-3.19;80.36;101340.17;109204;1276;140024;-57
2022/02/13 00:38:48;;;;;;;22.00;10.10;;;;;;;-3.24;80.33;101341.98;109292;1276;22485;-57
2022/02/13 00:41:18;;;;;;;26.80;10.00;;;;;;;-3.28;80.43;101348.00;109227;1276;138755;-57
2022/02/13 00:43:45;;;;;;;22.00;10.10;;;;;;;-3.28;80.64;101349.62;109316;1276;22449;-57
2022/02/13 00:46:13;;;;;;;39.10;12.90;;;;;;;-3.28;80.81;101353.08;109279;1276;22649;-57
2022/02/13 00:48:42;;;;;;;35.60;12.50;;;;;;;-3.26;80.97;101355.60;109182;1276;139600;-57
2022/02/13 00:51:10;;;;;;;36.00;13.20;;;;;;;-3.25;81.14;101354.71;109298;1276;22495;-57
2022/02/13 00:53:38;;;;;;;28.90;12.60;;;;;;;-3.27;81.04;101350.73;109143;1276;138656;-57
2022/02/13 00:56:06;;;;;;;25.30;9.90;;;;;;;-3.29;81.21;101354.13;109318;1276;22491;-57
2022/02/13 00:58:35;;;;;;;23.50;9.60;;;;;;;-3.30;81.33;101360.96;109291;1277;23245;-57
2022/02/13 01:01:04;;;;;;;23.00;9.10;;;;;;;-3.33;81.29;101356.27;109120;1276;138321;-57
2022/02/13 01:03:32;;;;;;;21.30;9.40;;;;;;;-3.36;81.42;101351.48;109350;1277;22426;-57
2022/02/13 01:06:00;;;;;;;22.90;9.60;;;;;;;-3.39;81.36;101352.23;109193;1277;137653;-57
2022/02/13 01:08:28;;;;;;;24.50;12.40;;;;;;;-3.39;81.49;101349.47;109319;1276;22488;-57
2022/02/13 01:10:56;;;;;;;25.10;11.90;;;;;;;-3.41;81.52;101348.14;109184;1276;139361;-57
2022/02/13 01:13:27;;;;;;;23.30;10.70;;;;;;;-3.39;81.81;101343.77;109289;1276;22572;-57
2022/02/13 01:15:56;;;;;;;28.00;12.10;;;;;;;-3.38;81.74;101337.27;109257;1276;22477;-57
2022/02/13 01:18:24;;;;;;;30.30;12.50;;;;;;;-3.39;81.71;101334.70;109184;1276;139970;-57
2022/02/13 01:20:52;;;;;;;31.90;13.50;;;;;;;-3.39;81.63;101335.90;109265;1276;22447;-57
2022/02/13 01:23:21;;;;;;;25.90;13.50;;;;;;;-3.40;81.48;101332.27;109152;1277;139007;-57
2022/02/13 01:25:49;;;;;;;32.80;13.40;;;;;;;-3.42;81.60;101333.83;109274;1276;22391;-57
2022/02/13 01:28:19;;;;;;;36.00;15.30;;;;;;;-3.43;81.56;101334.16;109281;1276;22508;-57
2022/02/13 01:30:47;;;;;;;36.80;16.80;;;;;;;-3.45;81.54;101339.61;109248;1277;138368;-57
2022/02/13 01:33:16;;;;;;;48.80;19.20;;;;;;;-3.47;81.62;101335.88;109239;1276;23896;-57
2022/02/13 01:35:44;;;;;;;38.40;15.80;;;;;;;-3.45;81.69;101341.75;109170;1276;139466;-57
2022/02/13 01:38:11;;;;;;;35.00;15.20;;;;;;;-3.45;81.64;101339.44;109247;1276;22445;-57
2022/02/13 01:40:39;;;;;;;35.60;15.00;;;;;;;-3.46;81.56;101340.39;109285;1276;23107;-60
2022/02/13 01:43:08;;;;;;;33.90;16.30;;;;;;;-3.47;81.62;101337.88;109191;1277;138226;-59
2022/02/13 01:45:36;;;;;;;37.40;16.10;;;;;;;-3.49;81.54;101337.09;109300;1276;22417;-59
2022/02/13 01:48:08;;;;;;;35.70;14.70;;;;;;;-3.53;81.38;101334.72;109141;1276;137908;-60
2022/02/13 01:50:39;;;;;;;32.10;14.50;;;;;;;-3.60;81.47;101328.88;109259;1276;22446;-59
2022/02/13 01:53:07;;;;;;;26.90;13.40;;;;;;;-3.62;81.40;101341.66;109172;1276;139082;-59
2022/02/13 01:55:35;;;;;;;21.60;10.50;;;;;;;-3.66;81.43;101342.19;109350;1276;23239;-59
2022/02/13 01:58:03;;;;;;;19.30;9.00;;;;;;;-3.69;81.35;101346.16;109349;1276;22452;-60
2022/02/13 02:00:31;;;;;;;25.50;10.80;;;;;;;-3.71;81.57;101347.00;109313;1275;138040;-59
2022/02/13 02:02:59;;;;;;;16.60;7.30;;;;;;;-3.73;81.43;101346.82;109354;1276;22442;-59
2022/02/13 02:05:27;;;;;;;19.70;9.40;;;;;;;-3.74;81.52;101345.66;109286;1275;139685;-60
2022/02/13 02:07:55;;;;;;;19.60;7.80;;;;;;;-3.74;81.47;101344.13;109108;1276;23052;-59
2022/02/13 02:10:24;;;;;;;17.00;8.10;;;;;;;-3.79;81.31;101343.05;109351;1275;23344;-60
2022/02/13 02:12:51;;;;;;;13.20;7.80;;;;;;;-3.81;81.31;101336.48;109152;1276;139022;-60
2022/02/13 02:15:22;;;;;;;12.00;7.60;;;;;;;-3.84;81.46;101345.20;109289;1276;22461;-59
2022/02/13 02:17:51;;;;;;;13.90;7.00;;;;;;;-3.82;81.60;101344.39;109203;1275;138033;-60
2022/02/13 02:20:19;;;;;;;13.20;7.20;;;;;;;-3.81;81.65;101343.23;109390;1276;22487;-60
2022/02/13 02:22:48;;;;;;;16.20;8.70;;;;;;;-3.82;81.73;101341.52;109269;1276;137843;-60
2022/02/13 02:25:16;;;;;;;18.20;8.70;;;;;;;-3.81;81.76;101339.70;109374;1276;22558;-59
2022/02/13 02:27:46;;;;;;;19.00;8.30;;;;;;;-3.84;81.76;101333.35;109371;1276;22457;-60
2022/02/13 02:30:14;;;;;;;15.00;8.80;;;;;;;-3.87;81.58;101333.60;109287;1276;138300;-60
2022/02/13 02:32:42;;;;;;;18.20;7.60;;;;;;;-3.93;81.33;101334.38;109310;1276;23309;-59
2022/02/13 02:35:10;;;;;;;15.60;7.50;;;;;;;-3.96;81.40;101333.96;109279;1276;140129;-60
2022/02/13 02:37:38;;;;;;;17.60;8.00;;;;;;;-3.97;81.40;101333.45;109376;1276;22625;-60
2022/02/13 02:40:07;;;;;;;18.20;8.30;;;;;;;-4.01;81.28;101333.73;109308;1276;22432;-57
2022/02/13 02:42:35;;;;;;;16.10;6.90;;;;;;;-4.07;81.18;101330.86;109044;1277;140519;-57
2022/02/13 02:45:04;;;;;;;22.00;7.50;;;;;;;-4.11;81.15;101331.94;109379;1275;22457;-57
2022/02/13 02:47:32;;;;;;;17.90;8.10;;;;;;;-4.15;81.12;101330.59;109083;1277;138535;-57
2022/02/13 02:50:00;;;;;;;11.70;6.20;;;;;;;-4.15;81.27;101334.02;109414;1276;22577;-57
2022/02/13 02:52:28;;;;;;;12.50;6.70;;;;;;;-4.16;81.35;101332.28;109382;1276;22331;-57
2022/02/13 02:54:56;;;;;;;13.00;6.40;;;;;;;-4.14;81.55;101341.20;109287;1276;137548;-56
2022/02/13 02:57:24;;;;;;;11.00;6.20;;;;;;;-4.12;81.63;101341.77;109286;1277;22540;-57
2022/02/13 02:59:52;;;;;;;12.10;6.40;;;;;;;-4.11;81.49;101338.11;109283;1277;138362;-57
2022/02/13 03:02:28;;;;;;;11.80;5.50;;;;;;;-4.11;81.73;101335.30;109383;1276;23312;-57
2022/02/13 03:04:56;;;;;;;11.70;6.20;;;;;;;-4.12;81.54;101336.81;109271;1276;138340;-57
2022/02/13 03:07:24;;;;;;;11.40;5.50;;;;;;;-4.13;81.62;101342.20;109376;1276;22501;-57
2022/02/13 03:09:53;;;;;;;11.40;6.10;;;;;;;-4.12;81.67;101338.92;109289;1276;22715;-57
2022/02/13 03:12:21;;;;;;;11.70;6.70;;;;;;;-4.10;82.05;101340.00;109295;1276;138343;-57
2022/02/13 03:14:49;;;;;;;13.10;5.60;;;;;;;-4.07;82.13;101331.76;109375;1276;22448;-57
2022/02/13 03:17:17;;;;;;;11.10;5.00;;;;;;;-4.04;82.23;101329.39;109251;1276;140364;-56
2022/02/13 03:19:45;;;;;;;13.10;5.90;;;;;;;-4.02;82.39;101330.09;109405;1276;22455;-57
2022/02/13 03:22:13;;;;;;;11.40;6.40;;;;;;;-3.98;82.72;101334.80;109341;1276;22466;-57
2022/02/13 03:24:41;;;;;;;12.50;6.80;;;;;;;-3.94;82.73;101330.91;109283;1276;151227;-56
2022/02/13 03:27:11;;;;;;;15.70;6.10;;;;;;;-3.88;82.95;101336.51;109408;1276;22262;-57
2022/02/13 03:29:39;;;;;;;12.00;6.40;;;;;;;-3.85;83.01;101340.71;109252;1276;142180;-57
2022/02/13 03:32:07;;;;;;;11.00;6.00;;;;;;;-3.83;82.94;101338.58;109369;1277;23144;-57
2022/02/13 03:34:36;;;;;;;9.70;5.40;;;;;;;-3.84;82.81;101338.15;109395;1276;22531;-57
2022/02/13 03:37:05;;;;;;;12.60;6.00;;;;;;;-3.83;82.73;101336.98;109262;1276;139414;-57
2022/02/13 03:39:33;;;;;;;13.60;5.70;;;;;;;-3.82;82.56;101332.80;109381;1276;22459;-57
2022/02/13 03:42:05;;;;;;;8.00;4.70;;;;;;;-3.81;82.76;101330.26;109299;1276;137993;-57
2022/02/13 03:44:36;;;;;;;9.90;4.90;;;;;;;-3.79;82.89;101324.06;109401;1276;22465;-56
2022/02/13 03:47:04;;;;;;;11.30;6.40;;;;;;;-3.76;82.91;101322.42;109275;1275;138187;-57
2022/02/13 03:49:32;;;;;;;9.00;4.50;;;;;;;-3.74;82.96;101320.08;109385;1275;22453;-57
2022/02/13 03:52:00;;;;;;;9.00;4.90;;;;;;;-3.72;82.99;101314.80;109386;1276;22548;-57
2022/02/13 03:54:28;;;;;;;9.00;4.80;;;;;;;-3.72;83.20;101304.64;109292;1276;138877;-57
2022/02/13 03:56:56;;;;;;;9.40;5.00;;;;;;;-3.68;83.05;101306.64;109396;1275;22899;-57
2022/02/13 03:59:24;;;;;;;8.90;5.20;;;;;;;-3.68;83.08;101306.48;109269;1276;140154;-57
2022/02/13 04:01:52;;;;;;;10.70;4.80;;;;;;;-3.67;83.08;101306.23;109449;1275;22973;-57
2022/02/13 04:04:20;;;;;;;9.50;5.00;;;;;;;-3.67;83.09;101302.65;109381;1276;22465;-57
2022/02/13 04:06:48;;;;;;;10.30;4.80;;;;;;;-3.67;83.09;101299.98;109245;1276;138000;-57
2022/02/13 04:09:16;;;;;;;7.80;4.40;;;;;;;-3.67;83.01;101299.67;109406;1276;22451;-57
2022/02/13 04:11:45;;;;;;;9.70;5.40;;;;;;;-3.66;83.04;101297.46;109282;1276;138228;-57
2022/02/13 04:14:14;;;;;;;9.00;5.30;;;;;;;-3.67;82.88;101290.79;109380;1276;22259;-57
2022/02/13 04:16:42;;;;;;;11.50;5.70;;;;;;;-3.68;82.89;101286.04;109414;1276;22478;-57
2022/02/13 04:19:10;;;;;;;11.90;5.80;;;;;;;-3.68;82.79;101283.09;109263;1276;139727;-57
2022/02/13 04:21:38;;;;;;;9.40;4.90;;;;;;;-3.66;82.83;101286.64;109175;1277;22471;-57
2022/02/13 04:24:06;;;;;;;11.60;5.50;;;;;;;-3.65;82.74;101285.13;109250;1276;138457;-57
2022/02/13 04:26:34;;;;;;;10.90;6.50;;;;;;;-3.64;82.89;101288.78;109193;1276;22454;-57
2022/02/13 04:29:02;;;;;;;11.20;6.50;;;;;;;-3.65;82.89;101290.45;109223;1277;137519;-57
2022/02/13 04:31:31;;;;;;;15.10;7.90;;;;;;;-3.66;82.96;101289.23;109394;1276;23224;-57
2022/02/13 04:33:59;;;;;;;13.70;6.60;;;;;;;-3.67;83.04;101283.45;109371;1276;23248;-57
2022/02/13 04:36:26;;;;;;;12.40;6.80;;;;;;;-3.67;83.03;101287.01;109288;1276;137401;-56
2022/02/13 04:38:55;;;;;;;11.30;6.60;;;;;;;-3.66;83.10;101283.26;109387;1276;22229;-56
2022/02/13 04:41:23;;;;;;;13.90;7.00;;;;;;;-3.67;83.14;101286.73;109257;1276;138893;-57
2022/02/13 04:43:51;;;;;;;12.00;6.00;;;;;;;-3.70;83.09;101282.11;109406;1276;22418;-56
2022/02/13 04:46:19;;;;;;;13.40;5.90;;;;;;;-3.70;83.01;101283.39;109342;1276;23359;-57
2022/02/13 04:48:47;;;;;;;11.50;5.90;;;;;;;-3.71;83.09;101281.17;109100;1277;138780;-56
2022/02/13 04:51:15;;;;;;;11.70;5.70;;;;;;;-3.73;82.89;101287.70;109432;1276;22417;-57
2022/02/13 04:53:43;;;;;;;12.40;6.50;;;;;;;-3.75;82.83;101288.58;109259;1276;139088;-56
2022/02/13 04:56:12;;;;;;;13.30;5.50;;;;;;;-3.81;82.52;101292.42;109411;1276;22514;-56
2022/02/13 04:58:41;;;;;;;9.80;5.20;;;;;;;-3.88;82.50;101289.78;109396;1276;22394;-56
2022/02/13 05:01:09;;;;;;;9.80;5.00;;;;;;;-3.90;82.63;101287.34;109276;1277;138431;-57
2022/02/13 05:03:38;;;;;;;9.90;6.00;;;;;;;-3.90;82.75;101287.64;109372;1275;23055;-56
2022/02/13 05:06:07;;;;;;;13.10;7.30;;;;;;;-3.88;82.93;101289.24;109212;1276;137734;-56
2022/02/13 05:08:35;;;;;;;11.70;6.20;;;;;;;-3.86;83.13;101293.17;109381;1275;22479;-56
2022/02/13 05:11:03;;;;;;;15.80;6.60;;;;;;;-3.83;83.15;101296.67;109272;1276;138954;-56
2022/02/13 05:13:33;;;;;;;14.80;6.50;;;;;;;-3.85;82.99;101298.64;109393;1276;22401;-56
2022/02/13 05:16:01;;;;;;;13.00;7.10;;;;;;;-3.89;82.97;101298.27;109374;1277;22655;-56
2022/02/13 05:18:29;;;;;;;12.00;7.20;;;;;;;-3.94;82.83;101292.05;109242;1276;138815;-56
2022/02/13 05:20:57;;;;;;;14.20;8.20;;;;;;;-3.97;83.03;101296.52;109360;1276;22517;-57
2022/02/13 05:23:25;;;;;;;13.40;8.30;;;;;;;-3.99;82.99;101300.23;109206;1276;138483;-56
2022/02/13 05:25:53;;;;;;;15.80;9.40;;;;;;;-4.05;82.76;101302.00;109415;1276;22452;-56
2022/02/13 05:28:22;;;;;;;16.60;9.40;;;;;;;-4.09;82.84;101296.62;109416;1276;22405;-57
2022/02/13 05:30:50;;;;;;;16.40;9.40;;;;;;;-4.10;83.04;101299.40;109249;1276;138568;-57
2022/02/13 05:33:18;;;;;;;16.40;9.20;;;;;;;-4.11;82.94;101302.63;109400;1277;22447;-57
2022/02/13 05:35:46;;;;;;;16.60;9.20;;;;;;;-4.11;83.00;101303.34;109206;1276;138263;-57
2022/02/13 05:38:14;;;;;;;19.10;9.20;;;;;;;-4.11;83.17;101306.02;109350;1276;23325;-57
2022/02/13 05:40:42;;;;;;;19.50;9.60;;;;;;;-4.10;83.37;101300.41;109358;1276;22293;-59
2022/02/13 05:43:10;;;;;;;19.40;10.10;;;;;;;-4.08;83.31;101305.06;109236;1276;138901;-59
2022/02/13 05:45:38;;;;;;;23.20;9.60;;;;;;;-4.07;83.37;101311.73;109313;1276;22541;-59
2022/02/13 05:48:06;;;;;;;29.50;13.30;;;;;;;-4.07;83.43;101311.34;109292;1276;138186;-59
2022/02/13 05:50:37;;;;;;;27.40;11.10;;;;;;;-4.06;83.59;101310.90;109380;1276;22601;-59
2022/02/13 05:53:05;;;;;;;21.30;11.30;;;;;;;-4.03;83.71;101318.84;109196;1276;139455;-58
2022/02/13 05:55:33;;;;;;;21.20;10.70;;;;;;;-4.00;83.87;101317.71;109354;1276;22268;-59
2022/02/13 05:58:02;;;;;;;21.80;10.60;;;;;;;-3.96;83.89;101314.94;109379;1276;22416;-59
2022/02/13 06:00:29;;;;;;;18.20;11.40;;;;;;;-3.91;84.07;101317.70;109265;1277;138385;-59
2022/02/13 06:02:57;;;;;;;17.90;10.60;;;;;;;-3.85;84.15;101318.53;109343;1275;23451;-59
2022/02/13 06:05:25;;;;;;;21.00;11.20;;;;;;;-3.79;84.39;101315.89;109240;1276;139039;-59
2022/02/13 06:07:53;;;;;;;14.90;8.90;;;;;;;-3.74;84.47;101308.94;109283;1277;22537;-58
2022/02/13 06:10:22;;;;;;;20.70;9.90;;;;;;;-3.65;84.68;101312.13;109265;1276;22957;-59
2022/02/13 06:12:50;;;;;;;18.70;9.40;;;;;;;-3.57;84.61;101311.30;109247;1277;139185;-59
2022/02/13 06:15:19;;;;;;;18.60;9.10;;;;;;;-3.50;84.70;101310.57;109377;1276;22489;-59
2022/02/13 06:17:48;;;;;;;19.60;11.10;;;;;;;-3.43;84.76;101313.55;109276;1276;138490;-59
2022/02/13 06:20:16;;;;;;;27.00;12.70;;;;;;;-3.36;84.75;101310.61;109356;1276;22540;-59
2022/02/13 06:22:44;;;;;;;21.20;11.80;;;;;;;-3.28;84.82;101309.08;109314;1276;22480;-59
2022/02/13 06:25:12;;;;;;;26.10;11.70;;;;;;;-3.21;84.93;101308.35;109245;1277;138180;-59
2022/02/13 06:27:40;;;;;;;19.70;11.50;;;;;;;-3.14;84.85;101305.99;109328;1275;22901;-59
2022/02/13 06:30:08;;;;;;;19.30;9.70;;;;;;;-3.07;84.84;101302.01;109305;1275;140176;-59
2022/02/13 06:32:37;;;;;;;19.50;9.30;;;;;;;-2.99;84.87;101304.55;109373;1275;23133;-59
2022/02/13 06:35:05;;;;;;;16.50;9.10;;;;;;;-2.91;85.11;101298.16;109212;1276;140201;-59
2022/02/13 06:37:33;;;;;;;16.90;9.10;;;;;;;-2.83;85.01;101296.30;109402;1276;22415;-59
2022/02/13 06:40:01;;;;;;;17.90;10.00;;;;;;;-2.75;85.09;101293.67;109381;1276;23285;-57
2022/02/13 06:42:30;;;;;;;22.20;10.20;;;;;;;-2.68;85.10;101292.85;109255;1276;137983;-57
2022/02/13 06:44:58;;;;;;;17.40;10.30;;;;;;;-2.60;84.99;101293.65;109410;1276;22393;-57
2022/02/13 06:47:26;;;;;;;18.90;9.90;;;;;;;-2.54;84.98;101294.86;109187;1276;139322;-57
2022/02/13 06:49:54;;;;;;;16.60;9.50;;;;;;;-2.47;85.07;101293.79;109360;1276;22765;-57
2022/02/13 06:52:22;;;;;;;21.40;12.50;;;;;;;-2.42;84.94;101297.04;109347;1277;22693;-57
2022/02/13 06:54:50;;;;;;;20.60;8.70;;;;;;;-2.36;84.91;101294.56;109250;1276;139376;-57
2022/02/13 06:57:18;;;;;;;18.00;9.80;;;;;;;-2.29;84.89;101289.73;109340;1275;23739;-57
2022/02/13 06:59:47;;;;;;;17.90;9.90;;;;;;;-2.23;84.82;101295.25;109123;1277;138415;-57
2022/02/13 07:02:15;;;;;;;16.20;9.30;;;;;;;-2.16;84.93;101294.44;109354;1276;22444;-57
2022/02/13 07:04:43;;;;;;;18.90;10.20;;;;;;;-2.11;84.84;101288.63;109416;1276;22561;-57
2022/02/13 07:07:11;;;;;;;16.90;9.60;;;;;;;-2.03;84.72;101293.99;109286;1276;138417;-57
2022/02/13 07:09:39;;;;;;;18.40;9.80;;;;;;;-1.96;84.69;101297.35;109205;1276;23720;-57
2022/02/13 07:12:12;;;;;;;16.30;9.20;;;;;;;-1.89;84.89;101292.80;109194;1277;138957;-58
2022/02/13 07:14:41;;;;;;;16.70;8.20;;;;;;;-1.81;84.63;101294.74;109397;1276;23432;-57
2022/02/13 07:17:09;;;;;;;16.90;8.00;;;;;;;-1.73;84.69;101293.87;109246;1276;139578;-58
2022/02/13 07:19:37;;;;;;;13.20;7.80;;;;;;;-1.65;84.56;101289.63;109392;1276;22528;-57
2022/02/13 07:22:07;;;;;;;14.40;8.20;;;;;;;-1.58;84.51;101285.95;109353;1275;23210;-57
2022/02/13 07:24:37;;;;;;;14.00;8.00;;;;;;;-1.50;84.62;101290.38;109225;1277;137681;-57
2022/02/13 07:27:05;;;;;;;17.20;8.60;;;;;;;-1.42;84.61;101290.21;109395;1276;23161;-57
2022/02/13 07:29:34;;;;;;;12.60;8.50;;;;;;;-1.35;84.56;101290.44;109267;1276;138746;-57
2022/02/13 07:32:03;;;;;;;16.20;7.90;;;;;;;-1.27;84.49;101292.44;109278;1277;22586;-58
2022/02/13 07:34:31;;;;;;;16.40;8.50;;;;;;;-1.20;84.38;101288.89;109384;1276;22526;-58
2022/02/13 07:37:02;;;;;;;15.70;9.40;;;;;;;-1.13;84.18;101285.09;109265;1276;139074;-57
2022/02/13 07:39:30;;;;;;;15.70;7.50;;;;;;;-1.07;84.00;101282.36;109383;1276;22482;-57
2022/02/13 07:41:59;;;;;;;20.00;8.80;;;;;;;-0.99;83.80;101283.63;109251;1276;138586;-57
2022/02/13 07:44:27;;;;;;;14.60;7.20;;;;;;;-0.93;83.64;101274.48;109379;1276;23191;-58
2022/02/13 07:46:55;;;;;;;15.60;8.70;;;;;;;-0.85;83.61;101278.92;109260;1276;140007;-58
2022/02/13 07:49:23;;;;;;;15.80;8.40;;;;;;;-0.78;83.54;101272.71;109305;1276;23174;-58
2022/02/13 07:51:51;;;;;;;16.70;8.10;;;;;;;-0.69;83.61;101277.56;109397;1276;23219;-58
2022/02/13 07:54:19;;;;;;;16.80;8.90;;;;;;;-0.60;83.10;101269.25;109262;1275;138571;-57
2022/02/13 07:56:47;;;;;;;18.90;9.90;;;;;;;-0.52;83.15;101274.98;109424;1276;22581;-57
2022/02/13 07:59:15;;;;;;;21.00;9.70;;;;;;;-0.46;82.83;101267.95;109294;1276;138684;-57
2022/02/13 08:01:43;;;;;;;22.30;10.90;;;;;;;-0.36;82.76;101267.73;109389;1276;22877;-57
2022/02/13 08:04:11;;;;;;;13.20;7.20;;;;;;;-0.28;82.46;101269.89;109370;1276;23429;-57
2022/02/13 08:06:39;;;;;;;14.30;7.10;;;;;;;-0.23;82.03;101260.20;109295;1277;139335;-57
2022/02/13 08:09:08;;;;;;;16.20;7.40;;;;;;;-0.16;81.52;101261.04;109366;1275;22448;-57
2022/02/13 08:11:35;;;;;;;12.20;6.20;;;;;;;-0.11;81.25;101258.91;109298;1276;137743;-57
2022/02/13 08:14:03;;;;;;;9.90;5.60;;;;;;;-0.06;81.02;101256.05;109356;1277;22399;-57
2022/02/13 08:16:31;;;;;;;13.70;6.00;;;;;;;0.01;80.35;101253.66;109300;1276;22535;-57
2022/02/13 08:19:00;;;;;;;10.80;6.30;;;;;;;0.07;79.83;101252.16;109300;1276;139652;-57
2022/02/13 08:21:28;;;;;;;9.20;4.50;;;;;;;0.13;79.21;101250.14;109362;1277;22567;-57
2022/02/13 08:23:56;;;;;;;8.40;4.40;;;;;;;0.20;78.94;101248.04;109270;1276;139689;-57
2022/02/13 08:26:25;;;;;;;11.10;5.70;;;;;;;0.25;78.59;101249.86;109404;1276;22631;-57
2022/02/13 08:28:53;;;;;;;9.50;6.00;;;;;;;0.32;78.16;101246.67;109273;1277;139254;-57
2022/02/13 08:31:21;;;;;;;12.30;5.80;;;;;;;0.38;78.04;101243.44;109429;1276;23339;-57
2022/02/13 08:33:49;;;;;;;10.70;5.40;;;;;;;0.43;78.14;101243.63;109364;1275;22389;-57
2022/02/13 08:36:17;;;;;;;9.50;5.60;;;;;;;0.49;77.46;101241.64;109291;1276;138950;-57
2022/02/13 08:38:45;;;;;;;7.80;4.50;;;;;;;0.54;77.30;101244.73;109402;1277;22661;-57
2022/02/13 08:41:13;;;;;;;8.60;4.60;;;;;;;0.59;77.08;101245.98;109339;1275;137844;-60
2022/02/13 08:43:41;;;;;;;9.30;5.10;;;;;;;0.64;76.69;101242.48;109394;1275;22952;-60
2022/02/13 08:46:09;;;;;;;6.70;4.10;;;;;;;0.68;76.26;101245.96;109404;1276;22476;-60
2022/02/13 08:48:38;;;;;;;7.70;4.70;;;;;;;0.75;75.94;101245.14;109271;1277;138671;-60
2022/02/13 08:51:07;;;;;;;9.20;4.50;;;;;;;0.80;75.76;101246.06;109412;1276;22662;-60
2022/02/13 08:53:35;;;;;;;9.20;4.60;;;;;;;0.85;75.57;101243.03;109278;1276;137769;-60
2022/02/13 08:56:03;;;;;;;9.80;5.40;;;;;;;0.92;75.42;101236.59;109400;1275;22538;-60
2022/02/13 08:58:33;;;;;;;7.20;4.40;;;;;;;1.00;75.45;101238.65;109312;1277;22597;-60
2022/02/13 09:01:00;;;;;;;9.50;4.60;;;;;;;1.08;75.21;101240.38;109239;1276;138662;-61
2022/02/13 09:03:29;;;;;;;8.60;4.80;;;;;;;1.15;75.21;101236.60;109380;1276;22462;-61
2022/02/13 09:05:56;;;;;;;9.30;4.60;;;;;;;1.22;74.95;101237.33;109294;1276;137070;-61
2022/02/13 09:08:24;;;;;;;5.90;3.40;;;;;;;1.29;74.82;101240.17;109403;1276;22495;-61
2022/02/13 09:10:52;;;;;;;7.80;4.30;;;;;;;1.34;74.30;101231.77;109282;1276;138475;-60
2022/02/13 09:13:21;;;;;;;8.60;4.50;;;;;;;1.39;74.17;101238.95;109295;1276;22463;-61
2022/02/13 09:15:49;;;;;;;8.70;4.60;;;;;;;1.44;73.73;101233.47;109402;1276;22427;-61
2022/02/13 09:18:27;;;;;;;4.60;3.30;;;;;;;1.48;73.61;101236.13;109199;1276;138153;-61
2022/02/13 09:20:55;;;;;;;10.50;3.70;;;;;;;1.51;73.27;101229.52;109321;1276;22469;-61
2022/02/13 09:23:23;;;;;;;8.90;4.70;;;;;;;1.53;72.92;101227.13;109277;1276;137603;-61
2022/02/13 09:25:51;;;;;;;6.70;3.70;;;;;;;1.55;72.71;101225.10;109372;1276;23235;-61
2022/02/13 09:28:19;;;;;;;7.10;3.70;;;;;;;1.59;72.52;101222.39;109389;1277;23224;-61
2022/02/13 09:30:50;;;;;;;7.50;3.80;;;;;;;1.63;72.57;101219.48;109286;1276;138494;-61
2022/02/13 09:33:24;;;;;;;6.20;3.50;;;;;;;1.67;72.17;101216.87;109383;1275;22541;-61
2022/02/13 09:35:52;;;;;;;5.50;3.70;;;;;;;1.72;72.16;101213.50;109252;1276;137822;-61
2022/02/13 09:38:20;;;;;;;7.00;4.20;;;;;;;1.77;72.09;101216.52;109402;1277;22457;-61
2022/02/13 09:40:48;;;;;;;5.90;3.70;;;;;;;1.83;71.88;101210.55;109300;1276;137525;-58
2022/02/13 09:43:17;;;;;;;9.10;4.40;;;;;;;1.88;71.56;101205.19;109270;1277;22862;-58
2022/02/13 09:45:46;;;;;;;11.40;5.00;;;;;;;1.91;71.17;101199.66;109250;1277;22388;-58
2022/02/13 09:48:15;;;;;;;7.10;4.80;;;;;;;1.94;71.14;101200.08;109228;1277;138293;-58
2022/02/13 09:50:43;;;;;;;6.50;4.00;;;;;;;1.97;70.98;101196.88;109299;1277;23700;-58
2022/02/13 09:53:14;;;;;;;10.00;5.60;;;;;;;2.01;71.00;101193.79;109291;1276;138987;-58
2022/02/13 09:55:42;;;;;;;7.90;5.20;;;;;;;2.05;71.20;101191.04;109367;1276;22466;-58
2022/02/13 09:58:10;;;;;;;8.20;4.00;;;;;;;2.09;71.06;101192.95;109227;1277;22433;-58
2022/02/13 10:00:57;;;;;;;10.80;4.80;;;;;;;2.11;70.81;101187.29;109200;1276;138233;-58
2022/02/13 10:03:55;;;;;;;6.40;4.40;;;;;;;2.14;70.62;101176.41;109330;1277;22472;-58
2022/02/13 10:06:25;;;;;;;5.80;3.60;;;;;;;2.16;70.15;101172.02;108336;1281;339378;-58
2022/02/13 10:10:39;;;;;;;6.50;3.60;;;;;;;2.18;69.73;101166.75;102027;1310;546078;-57
2022/02/13 10:13:07;;;;;;;6.40;3.60;;;;;;;2.16;69.64;101162.05;108094;1287;136497;-57
2022/02/13 10:15:35;;;;;;;6.10;3.80;;;;;;;2.19;69.75;101161.05;108603;1282;22553;-57
2022/02/13 10:18:07;;;;;;;6.10;3.20;;;;;;;2.19;69.52;101155.84;108242;1284;137611;-57
2022/02/13 10:20:40;;;;;;;10.00;5.20;;;;;;;2.23;69.19;101158.31;108634;1283;23196;-57
2022/02/13 10:23:13;;;;;;;7.60;4.60;;;;;;;2.24;69.07;101148.67;108428;1280;156586;-57
2022/02/13 10:25:42;;;;;;;8.40;4.10;;;;;;;2.26;69.04;101147.17;108895;1280;22971;-57
2022/02/13 10:28:14;;;;;;;6.40;3.90;;;;;;;2.28;68.92;101146.77;108846;1280;22506;-57
2022/02/13 10:30:44;;;;;;;8.80;4.50;;;;;;;2.32;68.88;101142.62;108737;1280;136850;-57
2022/02/13 10:33:26;;;;;;;7.30;3.90;;;;;;;2.33;68.56;101140.68;108874;1280;23342;-57
2022/02/13 10:36:11;;;;;;;7.50;4.30;;;;;;;2.35;68.71;101138.91;108794;1280;137281;-58
2022/02/13 10:38:41;;;;;;;5.20;3.40;;;;;;;2.36;68.35;101133.73;108829;1280;23445;-58
2022/02/13 10:41:28;;;;;;;6.30;4.10;;;;;;;2.38;68.70;101132.46;108689;1281;138587;-57
2022/02/13 10:44:06;;;;;;;8.30;4.30;;;;;;;2.41;68.56;101129.25;108802;1281;22420;-57
2022/02/13 10:46:37;;;;;;;11.60;5.50;;;;;;;2.43;67.89;101120.23;108778;1281;22493;-57
2022/02/13 10:49:13;;;;;;;9.10;4.70;;;;;;;2.42;67.43;101110.15;108725;1281;137393;-57
2022/02/13 10:51:42;;;;;;;15.30;6.60;;;;;;;2.42;67.54;101109.38;108804;1281;23233;-57
2022/02/13 10:54:10;;;;;;;9.80;4.00;;;;;;;2.45;67.58;101110.52;108756;1281;137046;-57
2022/02/13 10:56:38;;;;;;;5.60;3.30;;;;;;;2.48;67.77;101104.80;108786;1281;22430;-57
2022/02/13 10:59:11;;;;;;;16.70;6.00;;;;;;;2.53;67.79;101098.42;108707;1281;136956;-57
2022/02/13 11:01:40;;;;;;;17.20;6.20;;;;;;;2.54;67.30;101093.05;108723;1281;22519;-57
2022/02/13 11:04:08;;;;;;;8.80;4.20;;;;;;;2.57;67.02;101097.45;108828;1281;22397;-57
2022/02/13 11:06:38;;;;;;;11.20;5.00;;;;;;;2.57;66.99;101091.67;108517;1281;138807;-57
2022/02/13 11:09:21;;;;;;;7.90;3.70;;;;;;;2.57;66.76;101090.95;108635;1282;23578;-57
2022/02/13 11:11:52;;;;;;;7.50;3.50;;;;;;;2.57;66.59;101086.15;108343;1282;138062;-57
2022/02/13 11:14:30;;;;;;;6.20;3.30;;;;;;;2.57;66.41;101078.73;108502;1282;22480;-57
2022/02/13 11:17:01;;;;;;;4.70;2.70;;;;;;;2.58;66.39;101074.35;108515;1282;137656;-57
2022/02/13 11:19:30;;;;;;;5.40;2.80;;;;;;;2.60;66.56;101073.61;108618;1281;23236;-58